sensor_id;sensor_type;location;lat;lon;timestamp;pressure;altitude;pressure_sealevel;temperature;humidity
64933;BME280;51446;53.850;10.662;2022-07-05T00:00:59;101811.78;;;16.41;62.81
64933;BME280;51446;53.850;10.662;2022-07-05T00:03:26;101805.63;;;16.42;63.01
64933;BME280;51446;53.850;10.662;2022-07-05T00:05:51;101807.44;;;16.50;62.24
64933;BME280;51446;53.850;10.662;2022-07-05T00:08:17;101808.16;;;16.32;62.24
64933;BME280;51446;53.850;10.662;2022-07-05T00:10:42;101807.44;;;16.50;62.63
64933;BME280;51446;53.850;10.662;2022-07-05T00:13:08;101817.22;;;16.60;62.30
64933;BME280;51446;53.850;10.662;2022-07-05T00:15:34;101812.72;;;16.48;62.10
64933;BME280;51446;53.850;10.662;2022-07-05T00:17:59;101810.91;;;16.41;61.50
64933;BME280;51446;53.850;10.662;2022-07-05T00:20:25;101806.69;;;16.68;62.11
64933;BME280;51446;53.850;10.662;2022-07-05T00:22:50;101812.84;;;16.65;62.03
64933;BME280;51446;53.850;10.662;2022-07-05T00:25:15;101814.44;;;16.41;62.24
64933;BME280;51446;53.850;10.662;2022-07-05T00:27:41;101803.81;;;16.35;62.69
64933;BME280;51446;53.850;10.662;2022-07-05T00:30:07;101816.25;;;16.47;62.98
64933;BME280;51446;53.850;10.662;2022-07-05T00:32:32;101809.31;;;16.61;62.67
64933;BME280;51446;53.850;10.662;2022-07-05T00:34:58;101812.72;;;16.48;62.33
64933;BME280;51446;53.850;10.662;2022-07-05T00:37:23;101814.41;;;16.40;63.09
64933;BME280;51446;53.850;10.662;2022-07-05T00:39:48;101815.81;;;15.99;63.72
64933;BME280;51446;53.850;10.662;2022-07-05T00:42:14;101808.88;;;16.10;64.39
64933;BME280;51446;53.850;10.662;2022-07-05T00:44:40;101822.22;;;16.24;62.92
64933;BME280;51446;53.850;10.662;2022-07-05T00:47:08;101817.78;;;16.20;63.36
64933;BME280;51446;53.850;10.662;2022-07-05T00:49:34;101816.78;;;16.09;63.67
64933;BME280;51446;53.850;10.662;2022-07-05T00:52:00;101812.56;;;16.29;63.88
64933;BME280;51446;53.850;10.662;2022-07-05T00:54:27;101817.94;;;16.40;62.88
64933;BME280;51446;53.850;10.662;2022-07-05T00:56:53;101818.66;;;16.18;63.73
64933;BME280;51446;53.850;10.662;2022-07-05T00:59:19;101816.84;;;16.13;64.37
64933;BME280;51446;53.850;10.662;2022-07-05T01:01:44;101810.59;;;16.05;64.05
64933;BME280;51446;53.850;10.662;2022-07-05T01:04:11;101818.53;;;16.05;64.46
64933;BME280;51446;53.850;10.662;2022-07-05T01:06:37;101811.13;;;15.75;65.21
64933;BME280;51446;53.850;10.662;2022-07-05T01:09:03;101823.25;;;15.57;65.00
64933;BME280;51446;53.850;10.662;2022-07-05T01:11:28;101815.38;;;15.62;65.62
64933;BME280;51446;53.850;10.662;2022-07-05T01:13:54;101808.38;;;15.67;65.35
64933;BME280;51446;53.850;10.662;2022-07-05T01:16:19;101803.16;;;15.72;65.70
64933;BME280;51446;53.850;10.662;2022-07-05T01:18:45;101814.44;;;15.58;67.11
64933;BME280;51446;53.850;10.662;2022-07-05T01:21:12;101810.13;;;15.65;65.19
64933;BME280;51446;53.850;10.662;2022-07-05T01:23:38;101809.50;;;15.83;66.01
64933;BME280;51446;53.850;10.662;2022-07-05T01:26:06;101800.69;;;15.87;65.68
64933;BME280;51446;53.850;10.662;2022-07-05T01:28:31;101805.94;;;15.84;64.73
64933;BME280;51446;53.850;10.662;2022-07-05T01:30:57;101805.28;;;16.04;65.38
64933;BME280;51446;53.850;10.662;2022-07-05T01:33:29;101797.16;;;15.85;65.43
64933;BME280;51446;53.850;10.662;2022-07-05T01:35:56;101797.97;;;15.80;66.11
64933;BME280;51446;53.850;10.662;2022-07-05T01:38:21;101797.97;;;15.80;65.39
64933;BME280;51446;53.850;10.662;2022-07-05T01:40:47;101809.16;;;15.60;66.91
64933;BME280;51446;53.850;10.662;2022-07-05T01:43:18;101800.03;;;15.30;67.32
64933;BME280;51446;53.850;10.662;2022-07-05T01:45:48;101802.78;;;15.41;66.56
64933;BME280;51446;53.850;10.662;2022-07-05T01:48:16;101813.47;;;15.49;67.16
64933;BME280;51446;53.850;10.662;2022-07-05T01:50:51;101801.16;;;15.51;66.33
64933;BME280;51446;53.850;10.662;2022-07-05T01:53:22;101810.44;;;15.21;67.29
64933;BME280;51446;53.850;10.662;2022-07-05T01:55:48;101807.22;;;15.43;67.37
64933;BME280;51446;53.850;10.662;2022-07-05T01:58:14;101814.28;;;15.44;66.87
64933;BME280;51446;53.850;10.662;2022-07-05T02:00:47;101810.09;;;15.64;66.63
64933;BME280;51446;53.850;10.662;2022-07-05T02:03:14;101800.44;;;15.67;66.23
64933;BME280;51446;53.850;10.662;2022-07-05T02:05:40;101804.06;;;15.77;67.68
64933;BME280;51446;53.850;10.662;2022-07-05T02:08:06;101801.34;;;15.69;68.72
64933;BME280;51446;53.850;10.662;2022-07-05T02:10:32;101804.03;;;15.74;67.61
64933;BME280;51446;53.850;10.662;2022-07-05T02:12:59;101807.06;;;15.31;68.06
64933;BME280;51446;53.850;10.662;2022-07-05T02:15:24;101810.41;;;15.16;67.07
64933;BME280;51446;53.850;10.662;2022-07-05T02:17:50;101810.31;;;15.10;68.25
64933;BME280;51446;53.850;10.662;2022-07-05T02:20:15;101805.09;;;15.16;69.09
64933;BME280;51446;53.850;10.662;2022-07-05T02:22:40;101807.75;;;15.16;68.59
64933;BME280;51446;53.850;10.662;2022-07-05T02:25:06;101804.25;;;15.17;67.76
64933;BME280;51446;53.850;10.662;2022-07-05T02:27:31;101813.22;;;15.29;68.63
64933;BME280;51446;53.850;10.662;2022-07-05T02:29:56;101804.41;;;15.31;67.69
64933;BME280;51446;53.850;10.662;2022-07-05T02:32:21;101803.13;;;14.98;69.18
64933;BME280;51446;53.850;10.662;2022-07-05T02:34:47;101810.16;;;14.99;69.25
64933;BME280;51446;53.850;10.662;2022-07-05T02:37:12;101814.75;;;15.11;68.05
64933;BME280;51446;53.850;10.662;2022-07-05T02:39:37;101817.75;;;15.40;67.96
64933;BME280;51446;53.850;10.662;2022-07-05T02:42:03;101818.41;;;15.24;65.42
64933;BME280;51446;53.850;10.662;2022-07-05T02:44:28;101824.38;;;15.07;68.08
64933;BME280;51446;53.850;10.662;2022-07-05T02:46:53;101821.22;;;15.36;68.14
64933;BME280;51446;53.850;10.662;2022-07-05T02:49:18;101820.41;;;15.42;67.72
64933;BME280;51446;53.850;10.662;2022-07-05T02:51:44;101819.28;;;15.20;66.32
64933;BME280;51446;53.850;10.662;2022-07-05T02:54:09;101823.38;;;14.99;69.58
64933;BME280;51446;53.850;10.662;2022-07-05T02:56:34;101831.69;;;15.25;68.12
64933;BME280;51446;53.850;10.662;2022-07-05T02:58:59;101835.78;;;15.06;68.59
64933;BME280;51446;53.850;10.662;2022-07-05T03:01:25;101839.38;;;15.10;68.72
64933;BME280;51446;53.850;10.662;2022-07-05T03:03:50;101829.44;;;14.94;67.65
64933;BME280;51446;53.850;10.662;2022-07-05T03:06:15;101831.31;;;15.01;69.18
64933;BME280;51446;53.850;10.662;2022-07-05T03:08:41;101841.72;;;14.88;68.92
64933;BME280;51446;53.850;10.662;2022-07-05T03:11:06;101849.00;;;15.06;68.78
64933;BME280;51446;53.850;10.662;2022-07-05T03:13:32;101844.63;;;15.07;68.69
64933;BME280;51446;53.850;10.662;2022-07-05T03:15:57;101846.47;;;15.13;68.25
64933;BME280;51446;53.850;10.662;2022-07-05T03:18:22;101852.53;;;15.05;67.42
64933;BME280;51446;53.850;10.662;2022-07-05T03:20:48;101846.66;;;15.26;67.64
64933;BME280;51446;53.850;10.662;2022-07-05T03:23:13;101838.66;;;15.22;68.56
64933;BME280;51446;53.850;10.662;2022-07-05T03:25:38;101839.47;;;15.18;68.44
64933;BME280;51446;53.850;10.662;2022-07-05T03:28:03;101836.19;;;15.33;67.96
64933;BME280;51446;53.850;10.662;2022-07-05T03:30:29;101838.56;;;15.14;68.14
64933;BME280;51446;53.850;10.662;2022-07-05T03:32:54;101837.56;;;15.07;68.76
64933;BME280;51446;53.850;10.662;2022-07-05T03:35:19;101839.66;;;15.30;67.99
64933;BME280;51446;53.850;10.662;2022-07-05T03:37:44;101837.13;;;15.39;68.18
64933;BME280;51446;53.850;10.662;2022-07-05T03:40:10;101842.25;;;15.25;67.55
64933;BME280;51446;53.850;10.662;2022-07-05T03:42:35;101839.03;;;15.51;67.79
64933;BME280;51446;53.850;10.662;2022-07-05T03:45:02;101836.09;;;15.28;67.99
64933;BME280;51446;53.850;10.662;2022-07-05T03:47:27;101842.13;;;15.19;67.64
64933;BME280;51446;53.850;10.662;2022-07-05T03:49:53;101843.34;;;15.41;68.52
64933;BME280;51446;53.850;10.662;2022-07-05T03:52:19;101845.63;;;15.17;69.22
64933;BME280;51446;53.850;10.662;2022-07-05T03:54:44;101848.97;;;15.03;68.84
64933;BME280;51446;53.850;10.662;2022-07-05T03:57:10;101843.88;;;15.16;71.75
64933;BME280;51446;53.850;10.662;2022-07-05T03:59:36;101846.69;;;14.70;72.59
64933;BME280;51446;53.850;10.662;2022-07-05T04:02:01;101853.91;;;14.80;72.55
64933;BME280;51446;53.850;10.662;2022-07-05T04:04:26;101841.72;;;14.88;71.78
64933;BME280;51446;53.850;10.662;2022-07-05T04:06:52;101847.13;;;14.44;70.93
64933;BME280;51446;53.850;10.662;2022-07-05T04:09:17;101842.59;;;13.88;73.43
64933;BME280;51446;53.850;10.662;2022-07-05T04:11:42;101843.59;;;13.50;75.99
64933;BME280;51446;53.850;10.662;2022-07-05T04:14:07;101846.63;;;13.29;77.84
64933;BME280;51446;53.850;10.662;2022-07-05T04:16:34;101844.66;;;13.21;79.01
64933;BME280;51446;53.850;10.662;2022-07-05T04:18:59;101843.84;;;13.23;79.63
64933;BME280;51446;53.850;10.662;2022-07-05T04:21:24;101848.28;;;13.24;79.61
64933;BME280;51446;53.850;10.662;2022-07-05T04:23:50;101840.31;;;13.21;79.57
64933;BME280;51446;53.850;10.662;2022-07-05T04:26:15;101842.81;;;13.16;80.65
64933;BME280;51446;53.850;10.662;2022-07-05T04:28:40;101834.28;;;13.27;80.80
64933;BME280;51446;53.850;10.662;2022-07-05T04:31:06;101840.31;;;13.21;80.26
64933;BME280;51446;53.850;10.662;2022-07-05T04:33:31;101837.78;;;13.26;80.73
64933;BME280;51446;53.850;10.662;2022-07-05T04:35:56;101846.16;;;13.09;80.85
64933;BME280;51446;53.850;10.662;2022-07-05T04:38:21;101839.25;;;13.13;80.78
64933;BME280;51446;53.850;10.662;2022-07-05T04:40:47;101846.16;;;13.09;81.40
64933;BME280;51446;53.850;10.662;2022-07-05T04:43:12;101847.19;;;13.14;81.80
64933;BME280;51446;53.850;10.662;2022-07-05T04:45:37;101846.63;;;13.29;81.32
64933;BME280;51446;53.850;10.662;2022-07-05T04:48:03;101853.19;;;13.47;81.60
64933;BME280;51446;53.850;10.662;2022-07-05T04:50:28;101860.75;;;13.74;80.85
64933;BME280;51446;53.850;10.662;2022-07-05T04:52:53;101863.06;;;14.01;78.97
64933;BME280;51446;53.850;10.662;2022-07-05T04:55:19;101866.13;;;14.25;77.63
64933;BME280;51446;53.850;10.662;2022-07-05T04:57:44;101865.28;;;14.27;76.66
64933;BME280;51446;53.850;10.662;2022-07-05T05:00:11;101861.59;;;14.17;77.74
64933;BME280;51446;53.850;10.662;2022-07-05T05:02:37;101865.41;;;14.33;77.93
64933;BME280;51446;53.850;10.662;2022-07-05T05:05:02;101873.41;;;14.38;77.86
64933;BME280;51446;53.850;10.662;2022-07-05T05:07:28;101873.47;;;14.43;77.44
64933;BME280;51446;53.850;10.662;2022-07-05T05:09:53;101874.22;;;14.34;78.04
64933;BME280;51446;53.850;10.662;2022-07-05T05:12:18;101873.91;;;14.17;78.09
64933;BME280;51446;53.850;10.662;2022-07-05T05:14:44;101882.88;;;14.27;78.11
64933;BME280;51446;53.850;10.662;2022-07-05T05:17:09;101877.47;;;14.68;77.55
64933;BME280;51446;53.850;10.662;2022-07-05T05:19:34;101881.25;;;14.82;76.94
64933;BME280;51446;53.850;10.662;2022-07-05T05:21:59;101880.91;;;15.20;75.60
64933;BME280;51446;53.850;10.662;2022-07-05T05:24:25;101874.09;;;15.38;75.25
64933;BME280;51446;53.850;10.662;2022-07-05T05:26:50;101879.63;;;15.55;73.95
64933;BME280;51446;53.850;10.662;2022-07-05T05:29:16;101877.91;;;15.58;74.48
64933;BME280;51446;53.850;10.662;2022-07-05T05:31:42;101885.31;;;15.87;72.69
64933;BME280;51446;53.850;10.662;2022-07-05T05:34:07;101885.19;;;15.76;74.55
64933;BME280;51446;53.850;10.662;2022-07-05T05:36:32;101882.47;;;15.69;74.19
64933;BME280;51446;53.850;10.662;2022-07-05T05:38:57;101880.84;;;15.80;74.08
64933;BME280;51446;53.850;10.662;2022-07-05T05:41:23;101875.94;;;16.14;73.75
64933;BME280;51446;53.850;10.662;2022-07-05T05:43:48;101878.94;;;16.48;72.65
64933;BME280;51446;53.850;10.662;2022-07-05T05:46:13;101883.34;;;16.51;71.23
64933;BME280;51446;53.850;10.662;2022-07-05T05:48:38;101893.41;;;16.89;70.46
64933;BME280;51446;53.850;10.662;2022-07-05T05:51:04;101890.81;;;16.96;68.99
64933;BME280;51446;53.850;10.662;2022-07-05T05:53:30;101893.38;;;16.86;68.10
64933;BME280;51446;53.850;10.662;2022-07-05T05:55:55;101897.13;;;17.14;67.77
64933;BME280;51446;53.850;10.662;2022-07-05T05:58:22;101891.69;;;16.95;67.70
64933;BME280;51446;53.850;10.662;2022-07-05T06:00:49;101888.41;;;17.30;66.77
64933;BME280;51446;53.850;10.662;2022-07-05T06:03:26;101896.38;;;17.35;65.97
64933;BME280;51446;53.850;10.662;2022-07-05T06:05:52;101897.09;;;17.09;66.90
64933;BME280;51446;53.850;10.662;2022-07-05T06:08:18;101896.13;;;16.98;67.05
64933;BME280;51446;53.850;10.662;2022-07-05T06:10:44;101901.38;;;16.90;67.58
64933;BME280;51446;53.850;10.662;2022-07-05T06:13:11;101902.97;;;16.74;67.62
64933;BME280;51446;53.850;10.662;2022-07-05T06:15:38;101900.56;;;17.01;67.52
64933;BME280;51446;53.850;10.662;2022-07-05T06:18:04;101909.50;;;17.15;67.60
64933;BME280;51446;53.850;10.662;2022-07-05T06:20:31;101913.84;;;17.07;67.71
64933;BME280;51446;53.850;10.662;2022-07-05T06:22:58;101916.41;;;16.90;67.80
64933;BME280;51446;53.850;10.662;2022-07-05T06:25:25;101918.13;;;16.88;68.15
64933;BME280;51446;53.850;10.662;2022-07-05T06:27:57;101923.38;;;16.85;67.92
64933;BME280;51446;53.850;10.662;2022-07-05T06:30:24;101919.97;;;16.98;67.49
64933;BME280;51446;53.850;10.662;2022-07-05T06:32:50;101925.41;;;17.13;66.98
64933;BME280;51446;53.850;10.662;2022-07-05T06:35:15;101915.78;;;17.32;65.75
64933;BME280;51446;53.850;10.662;2022-07-05T06:40:12;101916.75;;;17.42;65.32
64933;BME280;51446;53.850;10.662;2022-07-05T06:42:38;101922.16;;;17.62;65.17
64933;BME280;51446;53.850;10.662;2022-07-05T06:45:07;101926.75;;;17.97;63.76
64933;BME280;51446;53.850;10.662;2022-07-05T06:47:33;101925.06;;;18.38;62.60
64933;BME280;51446;53.850;10.662;2022-07-05T06:49:59;101921.56;;;18.64;62.48
64933;BME280;51446;53.850;10.662;2022-07-05T06:52:24;101923.31;;;18.48;62.40
64933;BME280;51446;53.850;10.662;2022-07-05T06:54:50;101926.91;;;18.67;61.97
64933;BME280;51446;53.850;10.662;2022-07-05T06:57:19;101920.66;;;18.37;61.77
64933;BME280;51446;53.850;10.662;2022-07-05T06:59:45;101923.28;;;18.28;61.78
64933;BME280;51446;53.850;10.662;2022-07-05T07:02:10;101936.44;;;17.89;62.25
64933;BME280;51446;53.850;10.662;2022-07-05T07:04:35;101931.06;;;17.74;61.84
64933;BME280;51446;53.850;10.662;2022-07-05T07:07:00;101943.34;;;17.59;62.98
64933;BME280;51446;53.850;10.662;2022-07-05T07:09:26;101939.00;;;17.72;61.92
64933;BME280;51446;53.850;10.662;2022-07-05T07:11:51;101931.19;;;18.01;62.61
64933;BME280;51446;53.850;10.662;2022-07-05T07:14:16;101939.16;;;18.06;61.82
64933;BME280;51446;53.850;10.662;2022-07-05T07:16:42;101948.66;;;17.56;61.70
64933;BME280;51446;53.850;10.662;2022-07-05T07:19:07;101949.75;;;17.91;61.17
64933;BME280;51446;53.850;10.662;2022-07-05T07:21:33;101953.16;;;17.79;61.52
64933;BME280;51446;53.850;10.662;2022-07-05T07:23:58;101942.75;;;18.20;60.35
64933;BME280;51446;53.850;10.662;2022-07-05T07:26:23;101944.66;;;19.08;58.01
64933;BME280;51446;53.850;10.662;2022-07-05T07:28:49;101941.97;;;19.23;55.97
64933;BME280;51446;53.850;10.662;2022-07-05T07:31:14;101943.78;;;18.91;57.17
64933;BME280;51446;53.850;10.662;2022-07-05T07:33:39;101935.78;;;19.26;56.71
64933;BME280;51446;53.850;10.662;2022-07-05T07:36:04;101946.41;;;19.00;57.78
64933;BME280;51446;53.850;10.662;2022-07-05T07:38:30;101942.84;;;18.76;58.45
64933;BME280;51446;53.850;10.662;2022-07-05T07:40:55;101942.84;;;18.70;58.48
64933;BME280;51446;53.850;10.662;2022-07-05T07:43:21;101934.00;;;18.54;58.08
64933;BME280;51446;53.850;10.662;2022-07-05T07:45:47;101940.19;;;18.85;58.86
64933;BME280;51446;53.850;10.662;2022-07-05T07:48:13;101939.34;;;18.97;58.20
64933;BME280;51446;53.850;10.662;2022-07-05T07:50:39;101938.44;;;18.84;59.00
64933;BME280;51446;53.850;10.662;2022-07-05T07:53:04;101942.00;;;19.17;58.09
64933;BME280;51446;53.850;10.662;2022-07-05T07:55:29;101945.47;;;19.44;57.51
64933;BME280;51446;53.850;10.662;2022-07-05T07:57:55;101946.44;;;19.08;58.97
64933;BME280;51446;53.850;10.662;2022-07-05T08:00:20;101950.84;;;19.07;58.59
64933;BME280;51446;53.850;10.662;2022-07-05T08:02:45;101949.94;;;19.31;57.81
64933;BME280;51446;53.850;10.662;2022-07-05T08:05:10;101950.81;;;19.26;57.69
64933;BME280;51446;53.850;10.662;2022-07-05T08:07:36;101950.63;;;20.03;55.47
64933;BME280;51446;53.850;10.662;2022-07-05T08:10:03;101947.75;;;20.43;55.46
64933;BME280;51446;53.850;10.662;2022-07-05T08:12:29;101940.84;;;21.27;52.50
64933;BME280;51446;53.850;10.662;2022-07-05T08:14:54;101947.63;;;21.64;50.94
64933;BME280;51446;53.850;10.662;2022-07-05T08:17:19;101942.63;;;21.28;50.35
64933;BME280;51446;53.850;10.662;2022-07-05T08:19:46;101944.25;;;20.33;51.60
64933;BME280;51446;53.850;10.662;2022-07-05T08:22:30;101939.34;;;21.03;51.26
64933;BME280;51446;53.850;10.662;2022-07-05T08:24:55;101939.19;;;21.96;49.13
64933;BME280;51446;53.850;10.662;2022-07-05T08:27:20;101948.63;;;23.37;45.13
64933;BME280;51446;53.850;10.662;2022-07-05T08:29:46;101933.66;;;22.73;47.56
64933;BME280;51446;53.850;10.662;2022-07-05T08:32:11;101941.81;;;23.19;46.36
64933;BME280;51446;53.850;10.662;2022-07-05T08:34:37;101932.06;;;24.45;41.71
64933;BME280;51446;53.850;10.662;2022-07-05T08:37:02;101945.81;;;23.45;42.69
64933;BME280;51446;53.850;10.662;2022-07-05T08:39:28;101931.72;;;24.21;40.66
64933;BME280;51446;53.850;10.662;2022-07-05T08:41:54;101938.81;;;24.24;40.87
64933;BME280;51446;53.850;10.662;2022-07-05T08:44:22;101943.53;;;25.24;40.43
64933;BME280;51446;53.850;10.662;2022-07-05T08:46:49;101945.84;;;25.03;38.39
64933;BME280;51446;53.850;10.662;2022-07-05T08:49:20;101940.16;;;24.81;36.81
64933;BME280;51446;53.850;10.662;2022-07-05T08:51:46;101953.75;;;23.50;40.12
64933;BME280;51446;53.850;10.662;2022-07-05T08:54:12;101953.56;;;23.11;42.46
64933;BME280;51446;53.850;10.662;2022-07-05T08:56:40;101950.72;;;22.02;45.52
64933;BME280;51446;53.850;10.662;2022-07-05T08:59:06;101954.19;;;22.07;43.36
64933;BME280;51446;53.850;10.662;2022-07-05T09:01:32;101944.28;;;21.40;44.04
64933;BME280;51446;53.850;10.662;2022-07-05T09:04:03;101951.84;;;20.93;45.64
64933;BME280;51446;53.850;10.662;2022-07-05T09:06:31;101953.97;;;20.40;47.35
64933;BME280;51446;53.850;10.662;2022-07-05T09:08:58;101953.97;;;20.40;47.90
64933;BME280;51446;53.850;10.662;2022-07-05T09:11:25;101957.63;;;20.19;47.29
64933;BME280;51446;53.850;10.662;2022-07-05T09:13:53;101955.91;;;20.18;48.29
64933;BME280;51446;53.850;10.662;2022-07-05T09:16:19;101959.59;;;19.72;49.90
64933;BME280;51446;53.850;10.662;2022-07-05T09:18:48;101963.19;;;19.62;50.04
64933;BME280;51446;53.850;10.662;2022-07-05T09:21:24;101954.28;;;19.66;50.80
64933;BME280;51446;53.850;10.662;2022-07-05T09:23:57;101954.25;;;19.88;49.88
64933;BME280;51446;53.850;10.662;2022-07-05T09:26:47;101948.06;;;19.80;50.17
64933;BME280;51446;53.850;10.662;2022-07-05T09:29:19;101945.25;;;20.12;49.24
64933;BME280;51446;53.850;10.662;2022-07-05T09:31:47;101942.59;;;20.17;49.12
64933;BME280;51446;53.850;10.662;2022-07-05T09:34:19;101947.91;;;20.20;49.38
64933;BME280;51446;53.850;10.662;2022-07-05T09:36:54;101945.50;;;21.91;46.17
64933;BME280;51446;53.850;10.662;2022-07-05T09:44:45;101952.69;;;23.07;40.48
64933;BME280;51446;53.850;10.662;2022-07-05T09:47:12;101960.81;;;22.46;42.50
64933;BME280;51446;53.850;10.662;2022-07-05T09:49:42;101954.81;;;22.29;39.83
64933;BME280;51446;53.850;10.662;2022-07-05T09:52:08;101951.94;;;22.46;38.75
64933;BME280;51446;53.850;10.662;2022-07-05T09:54:33;101961.69;;;22.47;38.04
64933;BME280;51446;53.850;10.662;2022-07-05T09:56:59;101952.25;;;23.80;36.86
64933;BME280;51446;53.850;10.662;2022-07-05T09:59:24;101958.19;;;22.99;34.88
64933;BME280;51446;53.850;10.662;2022-07-05T10:01:50;101966.59;;;22.76;35.69
64933;BME280;51446;53.850;10.662;2022-07-05T10:04:16;101959.94;;;23.00;35.16
64933;BME280;51446;53.850;10.662;2022-07-05T10:06:41;101955.84;;;22.15;37.12
64933;BME280;51446;53.850;10.662;2022-07-05T10:09:09;101955.56;;;22.42;38.94
64933;BME280;51446;53.850;10.662;2022-07-05T10:11:39;101955.06;;;22.10;39.06
64933;BME280;51446;53.850;10.662;2022-07-05T10:14:10;101949.41;;;22.91;37.17
64933;BME280;51446;53.850;10.662;2022-07-05T10:16:36;101951.63;;;22.64;38.47
64933;BME280;51446;53.850;10.662;2022-07-05T10:19:01;101956.03;;;22.03;39.19
64933;BME280;51446;53.850;10.662;2022-07-05T10:21:27;101956.22;;;21.88;38.21
64933;BME280;51446;53.850;10.662;2022-07-05T10:23:53;101968.28;;;21.42;38.90
64933;BME280;51446;53.850;10.662;2022-07-05T10:26:21;101968.84;;;21.75;39.39
64933;BME280;51446;53.850;10.662;2022-07-05T10:28:51;101966.56;;;23.32;36.82
64933;BME280;51446;53.850;10.662;2022-07-05T10:31:17;101975.41;;;23.36;35.42
64933;BME280;51446;53.850;10.662;2022-07-05T10:33:43;101971.53;;;23.54;34.83
64933;BME280;51446;53.850;10.662;2022-07-05T10:36:13;101971.03;;;23.32;35.94
64933;BME280;51446;53.850;10.662;2022-07-05T10:38:41;101967.91;;;24.41;34.59
64933;BME280;51446;53.850;10.662;2022-07-05T10:41:09;101966.06;;;24.45;34.92
64933;BME280;51446;53.850;10.662;2022-07-05T10:43:36;101961.16;;;24.24;34.46
64933;BME280;51446;53.850;10.662;2022-07-05T10:46:01;101951.44;;;24.59;33.74
64933;BME280;51446;53.850;10.662;2022-07-05T10:48:31;101957.53;;;24.66;34.87
64933;BME280;51446;53.850;10.662;2022-07-05T10:50:59;101946.22;;;24.52;33.71
64933;BME280;51446;53.850;10.662;2022-07-05T11:03:45;101959.28;;;22.88;37.99
64933;BME280;51446;53.850;10.662;2022-07-05T11:06:25;101957.81;;;22.68;39.14
64933;BME280;51446;53.850;10.662;2022-07-05T11:13:55;101956.25;;;23.08;37.67
64933;BME280;51446;53.850;10.662;2022-07-05T11:16:21;101947.56;;;22.93;37.82
64933;BME280;51446;53.850;10.662;2022-07-05T11:18:49;101949.81;;;23.68;37.27
64933;BME280;51446;53.850;10.662;2022-07-05T11:21:19;101945.53;;;24.04;37.05
64933;BME280;51446;53.850;10.662;2022-07-05T11:23:45;101949.09;;;23.60;39.71
64933;BME280;51446;53.850;10.662;2022-07-05T11:26:11;101952.66;;;22.54;39.19
64933;BME280;51446;53.850;10.662;2022-07-05T11:28:45;101943.25;;;22.86;38.60
64933;BME280;51446;53.850;10.662;2022-07-05T11:31:12;101951.22;;;22.30;40.17
64933;BME280;51446;53.850;10.662;2022-07-05T11:33:40;101951.19;;;22.36;38.98
64933;BME280;51446;53.850;10.662;2022-07-05T11:36:20;101953.06;;;22.25;40.34
64933;BME280;51446;53.850;10.662;2022-07-05T11:39:13;101946.31;;;22.61;39.12
64933;BME280;51446;53.850;10.662;2022-07-05T11:41:46;101939.72;;;22.25;39.50
64933;BME280;51446;53.850;10.662;2022-07-05T11:44:12;101939.72;;;22.25;40.90
64933;BME280;51446;53.850;10.662;2022-07-05T11:46:38;101938.72;;;22.35;40.86
64933;BME280;51446;53.850;10.662;2022-07-05T11:49:03;101939.16;;;23.19;38.90
64933;BME280;51446;53.850;10.662;2022-07-05T11:51:29;101946.28;;;24.10;38.13
64933;BME280;51446;53.850;10.662;2022-07-05T11:53:54;101941.22;;;23.97;38.53
64933;BME280;51446;53.850;10.662;2022-07-05T11:56:20;101930.16;;;24.52;35.99
64933;BME280;51446;53.850;10.662;2022-07-05T11:58:45;101927.84;;;24.35;36.30
64933;BME280;51446;53.850;10.662;2022-07-05T12:01:10;101931.44;;;24.73;35.47
64933;BME280;51446;53.850;10.662;2022-07-05T12:03:36;101933.19;;;24.36;35.77
64933;BME280;51446;53.850;10.662;2022-07-05T12:06:13;101935.31;;;24.22;36.30
64933;BME280;51446;53.850;10.662;2022-07-05T12:08:40;101932.56;;;22.84;36.28
64933;BME280;51446;53.850;10.662;2022-07-05T12:11:06;101938.13;;;23.27;37.38
64933;BME280;51446;53.850;10.662;2022-07-05T12:13:50;101941.22;;;23.02;37.47
64933;BME280;51446;53.850;10.662;2022-07-05T12:16:16;101936.50;;;22.63;36.67
64933;BME280;51446;53.850;10.662;2022-07-05T12:18:51;101935.94;;;22.41;37.30
64933;BME280;51446;53.850;10.662;2022-07-05T12:21:18;101927.94;;;22.40;38.29
64933;BME280;51446;53.850;10.662;2022-07-05T12:23:46;101936.75;;;23.51;37.67
64933;BME280;51446;53.850;10.662;2022-07-05T12:26:16;101933.56;;;22.79;38.21
64933;BME280;51446;53.850;10.662;2022-07-05T12:28:42;101926.75;;;21.97;39.47
64933;BME280;51446;53.850;10.662;2022-07-05T12:31:21;101929.84;;;22.33;38.97
64933;BME280;51446;53.850;10.662;2022-07-05T12:33:47;101939.91;;;22.09;39.59
64933;BME280;51446;53.850;10.662;2022-07-05T12:36:19;101934.19;;;21.70;40.90
64933;BME280;51446;53.850;10.662;2022-07-05T12:38:44;101934.88;;;21.86;40.62
64933;BME280;51446;53.850;10.662;2022-07-05T12:41:10;101922.88;;;21.43;40.87
64933;BME280;51446;53.850;10.662;2022-07-05T12:43:55;101938.72;;;21.63;41.45
64933;BME280;51446;53.850;10.662;2022-07-05T12:46:34;101929.72;;;21.74;42.17
64933;BME280;51446;53.850;10.662;2022-07-05T12:49:01;101936.25;;;21.42;42.62
64933;BME280;51446;53.850;10.662;2022-07-05T12:51:34;101938.44;;;21.85;42.18
64933;BME280;51446;53.850;10.662;2022-07-05T12:54:01;101939.44;;;20.91;43.88
64933;BME280;51446;53.850;10.662;2022-07-05T12:56:53;101938.34;;;21.13;42.93
64933;BME280;51446;53.850;10.662;2022-07-05T12:59:37;101941.63;;;21.39;43.44
64933;BME280;51446;53.850;10.662;2022-07-05T13:02:03;101948.19;;;21.04;44.10